createdAt,value
2023-01-13T00:01:54.365Z,97231.09
2023-01-13T00:04:25.894Z,97226.62
2023-01-13T00:06:57.225Z,97223.14
2023-01-13T00:09:28.157Z,97224.05
2023-01-13T00:11:59.132Z,97217.61
2023-01-13T00:14:32.406Z,97213.84
2023-01-13T00:17:04.085Z,97213.07
2023-01-13T00:19:35.536Z,97208.73
2023-01-13T00:22:07.196Z,97204.64
2023-01-13T00:24:38.351Z,97197.88
2023-01-13T00:27:07.948Z,97195.48
2023-01-13T00:29:38.940Z,97197.81
2023-01-13T00:32:10.181Z,97186.26
2023-01-13T00:34:41.241Z,97188.41
2023-01-13T00:37:14.740Z,97186.02
2023-01-13T00:39:46.022Z,97185.10
2023-01-13T00:42:35.086Z,97180.65
2023-01-13T00:45:07.138Z,97179.30
2023-01-13T00:47:38.445Z,97175.88
2023-01-13T00:50:11.805Z,97173.87
2023-01-13T00:52:42.955Z,97175.50
2023-01-13T00:55:12.437Z,97180.42
2023-01-13T00:57:43.706Z,97174.09
2023-01-13T01:00:14.730Z,97170.16
2023-01-13T01:02:46.016Z,97162.03
2023-01-13T01:05:17.304Z,97160.15
2023-01-13T01:07:46.892Z,97162.45
2023-01-13T01:10:18.541Z,97171.50
2023-01-13T01:12:51.071Z,97166.33
2023-01-13T01:15:22.285Z,97163.10
2023-01-13T01:17:53.972Z,97160.71
2023-01-13T01:20:25.109Z,97151.39
2023-01-13T01:22:56.563Z,97147.69
2023-01-13T01:25:26.170Z,97145.55
2023-01-13T01:27:57.316Z,97142.63
2023-01-13T01:30:26.928Z,97141.73
2023-01-13T01:32:58.680Z,97138.77
2023-01-13T01:35:29.815Z,97144.16
2023-01-13T01:38:01.162Z,97151.17
2023-01-13T01:40:32.198Z,97150.30
2023-01-13T01:43:19.221Z,97145.63
2023-01-13T01:45:52.940Z,97150.11
2023-01-13T01:48:24.213Z,97151.40
2023-01-13T01:50:54.006Z,97149.92
2023-01-13T01:53:29.757Z,97156.36
2023-01-13T01:56:03.365Z,97150.73
2023-01-13T01:58:41.917Z,97146.17
2023-01-13T02:01:13.506Z,97145.05
2023-01-13T02:03:47.153Z,97139.52
2023-01-13T02:06:20.279Z,97138.48
2023-01-13T02:08:53.112Z,97138.05
2023-01-13T02:11:53.852Z,97135.33
2023-01-13T02:14:27.936Z,97136.52
2023-01-13T02:17:14.361Z,97134.58
2023-01-13T02:20:20.257Z,97127.05
2023-01-13T02:23:34.844Z,97123.85
2023-01-13T02:26:36.847Z,97123.55
2023-01-13T02:29:37.522Z,97125.19
2023-01-13T02:32:21.270Z,97120.88
2023-01-13T02:35:00.306Z,97117.39
2023-01-13T02:37:34.657Z,97119.48
2023-01-13T02:40:11.543Z,97115.39
2023-01-13T02:43:20.728Z,97108.37
2023-01-13T02:45:58.467Z,97105.80
2023-01-13T02:48:32.498Z,97102.67
2023-01-13T02:51:08.563Z,97105.87
2023-01-13T02:53:44.422Z,97103.11
2023-01-13T02:56:18.452Z,97100.40
2023-01-13T02:58:50.257Z,97099.02
2023-01-13T03:01:21.634Z,97097.27
2023-01-13T03:03:52.838Z,97094.34
2023-01-13T03:06:37.966Z,97087.16
2023-01-13T03:09:15.601Z,97088.95
2023-01-13T03:11:57.118Z,97091.02
2023-01-13T03:14:43.069Z,97085.36
2023-01-13T03:17:22.968Z,97083.13
2023-01-13T03:20:04.154Z,97080.77
2023-01-13T03:22:39.797Z,97077.71
2023-01-13T03:25:17.425Z,97076.27
2023-01-13T03:27:53.058Z,97078.73
2023-01-13T03:30:29.413Z,97077.23
2023-01-13T03:33:06.008Z,97074.33
2023-01-13T03:35:41.039Z,97076.12
2023-01-13T03:38:16.934Z,97073.11
2023-01-13T03:40:52.821Z,97083.84
2023-01-13T03:43:48.328Z,97083.33
2023-01-13T03:46:24.565Z,97080.36
2023-01-13T03:48:59.243Z,97079.49
2023-01-13T03:51:34.210Z,97079.58
2023-01-13T03:54:10.070Z,97080.08
2023-01-13T03:56:44.358Z,97080.92
2023-01-13T03:59:18.391Z,97082.14
2023-01-13T04:01:55.901Z,97089.02
2023-01-13T04:04:30.809Z,97087.59
2023-01-13T04:07:09.866Z,97087.17
2023-01-13T04:09:49.347Z,97084.52
2023-01-13T04:12:26.248Z,97084.08
2023-01-13T04:14:57.845Z,97078.66
2023-01-13T04:17:29.538Z,97076.16
2023-01-13T04:20:00.489Z,97074.23
2023-01-13T04:22:30.000Z,97072.72
2023-01-13T04:25:00.971Z,97071.65
2023-01-13T04:27:30.737Z,97070.52
2023-01-13T04:30:01.827Z,97071.07
2023-01-13T04:32:33.133Z,97075.16
2023-01-13T04:35:04.683Z,97074.03
2023-01-13T04:37:36.167Z,97071.84
2023-01-13T04:40:09.361Z,97071.54
2023-01-13T04:42:40.252Z,97066.41
2023-01-13T04:45:13.193Z,97070.81
2023-01-13T04:47:44.494Z,97070.58
2023-01-13T04:50:19.435Z,97070.65
2023-01-13T04:52:51.134Z,97067.20
2023-01-13T04:55:23.308Z,97071.25
2023-01-13T04:57:54.531Z,97076.88
2023-01-13T05:00:25.891Z,97071.49
2023-01-13T05:02:56.917Z,97076.80
2023-01-13T05:05:28.642Z,97074.48
2023-01-13T05:07:59.988Z,97077.09
2023-01-13T05:10:31.554Z,97077.52
2023-01-13T05:13:19.984Z,97078.43
2023-01-13T05:16:17.342Z,97075.21
2023-01-13T05:18:48.646Z,97075.54
2023-01-13T05:21:35.659Z,97079.21
2023-01-13T05:24:38.940Z,97078.05
2023-01-13T05:27:10.181Z,97079.53
2023-01-13T05:29:41.050Z,97080.69
2023-01-13T05:32:10.616Z,97081.23
2023-01-13T05:34:41.595Z,97078.64
2023-01-13T05:37:13.448Z,97077.11
2023-01-13T05:40:02.341Z,97076.84
2023-01-13T05:42:51.079Z,97076.37
2023-01-13T05:45:22.135Z,97076.83
2023-01-13T05:47:53.036Z,97078.32
2023-01-13T05:50:23.954Z,97078.52
2023-01-13T05:52:54.914Z,97079.61
2023-01-13T05:55:25.979Z,97078.54
2023-01-13T05:57:57.332Z,97079.59
2023-01-13T06:00:28.733Z,97081.30
2023-01-13T06:02:59.840Z,97075.30
2023-01-13T06:05:31.750Z,97075.29
2023-01-13T06:08:04.497Z,97075.63
2023-01-13T06:10:36.083Z,97081.32
2023-01-13T06:13:07.725Z,97082.40
2023-01-13T06:15:38.733Z,97075.77
2023-01-13T06:18:10.023Z,97075.17
2023-01-13T06:20:41.678Z,97077.08
2023-01-13T06:23:13.107Z,97081.23
2023-01-13T06:25:48.898Z,97080.95
2023-01-13T06:28:19.925Z,97082.10
2023-01-13T06:30:56.273Z,97083.58
2023-01-13T06:33:31.314Z,97085.76
2023-01-13T06:36:05.650Z,97084.98
2023-01-13T06:38:40.646Z,97084.41
2023-01-13T06:41:12.015Z,97086.14
2023-01-13T06:43:43.640Z,97083.02
2023-01-13T06:46:14.773Z,97083.17
2023-01-13T06:48:44.241Z,97085.85
2023-01-13T06:51:15.305Z,97086.73
2023-01-13T06:53:46.630Z,97085.89
2023-01-13T06:56:16.106Z,97084.10
2023-01-13T06:58:47.617Z,97086.18
2023-01-13T07:01:18.728Z,97085.61
2023-01-13T07:03:49.699Z,97087.98
2023-01-13T07:06:19.132Z,97085.67
2023-01-13T07:08:50.375Z,97086.20
2023-01-13T07:11:19.817Z,97082.81
2023-01-13T07:14:08.524Z,97085.42
2023-01-13T07:16:39.540Z,97077.44
2023-01-13T07:19:10.794Z,97075.10
2023-01-13T07:21:42.235Z,97076.59
2023-01-13T07:24:13.197Z,97077.48
2023-01-13T07:26:44.079Z,97080.25
2023-01-13T07:29:15.335Z,97078.38
2023-01-13T07:31:48.295Z,97075.88
2023-01-13T07:34:21.188Z,97076.54
2023-01-13T07:36:50.540Z,97076.27
2023-01-13T07:39:21.601Z,97080.83
2023-01-13T07:42:10.643Z,97081.04
2023-01-13T07:44:41.790Z,97082.11
2023-01-13T07:47:13.046Z,97080.88
2023-01-13T07:49:44.259Z,97083.23
2023-01-13T07:52:15.707Z,97083.92
2023-01-13T07:54:46.881Z,97086.40
2023-01-13T07:57:17.855Z,97091.59
2023-01-13T07:59:48.844Z,97089.08
2023-01-13T08:02:18.599Z,97088.19
2023-01-13T08:04:50.005Z,97086.59
2023-01-13T08:07:21.343Z,97086.65
2023-01-13T08:09:52.384Z,97084.17
2023-01-13T08:12:39.160Z,97086.73
2023-01-13T08:15:12.200Z,97085.30
2023-01-13T08:17:43.331Z,97088.77
2023-01-13T08:20:15.141Z,97092.84
2023-01-13T08:22:46.396Z,97090.86
2023-01-13T08:25:19.222Z,97095.40
2023-01-13T08:27:51.392Z,97098.77
2023-01-13T08:30:23.187Z,97101.27
2023-01-13T08:32:54.494Z,97101.66
2023-01-13T08:35:25.816Z,97099.69
2023-01-13T08:37:58.393Z,97099.89
2023-01-13T08:40:29.343Z,97104.25
2023-01-13T08:43:00.853Z,97106.23
2023-01-13T08:45:32.217Z,97102.25
2023-01-13T08:48:01.770Z,97104.70
2023-01-13T08:50:33.143Z,97107.66
2023-01-13T08:53:04.362Z,97106.01
2023-01-13T08:55:35.412Z,97110.14
2023-01-13T08:58:15.291Z,97107.67
2023-01-13T09:00:48.024Z,97106.41
2023-01-13T09:03:19.012Z,97110.58
2023-01-13T09:05:50.335Z,97108.23
2023-01-13T09:08:21.301Z,97112.61
2023-01-13T09:10:50.811Z,97116.17
2023-01-13T09:13:21.963Z,97121.27
2023-01-13T09:15:56.675Z,97121.16
2023-01-13T09:18:28.615Z,97122.09
2023-01-13T09:21:01.720Z,97121.70
2023-01-13T09:23:33.013Z,97123.04
2023-01-13T09:26:04.325Z,97123.98
2023-01-13T09:28:35.292Z,97122.84
2023-01-13T09:31:06.520Z,97118.88
2023-01-13T09:33:55.237Z,97114.48
2023-01-13T09:36:26.338Z,97113.45
2023-01-13T09:38:55.693Z,97110.85
2023-01-13T09:41:46.412Z,97109.84
2023-01-13T09:44:21.267Z,97106.66
2023-01-13T09:46:56.042Z,97102.84
2023-01-13T09:49:32.332Z,97096.45
2023-01-13T09:52:10.512Z,97095.38
2023-01-13T09:54:44.887Z,97089.83
2023-01-13T09:57:18.127Z,97083.38
2023-01-13T09:59:49.750Z,97074.50
2023-01-13T10:02:39.435Z,97068.64
2023-01-13T10:05:16.573Z,97066.41
2023-01-13T10:07:52.249Z,97069.70
2023-01-13T10:10:35.376Z,97064.21
2023-01-13T10:13:20.200Z,97063.98
2023-01-13T10:16:03.721Z,97062.86
2023-01-13T10:18:51.723Z,97062.67
2023-01-13T10:21:40.530Z,97062.84
2023-01-13T10:24:23.143Z,97061.52
2023-01-13T10:27:03.241Z,97064.36
2023-01-13T10:29:37.359Z,97064.99
2023-01-13T10:32:08.934Z,97064.36
2023-01-13T10:34:51.443Z,97061.79
2023-01-13T10:37:27.690Z,97062.23
2023-01-13T10:40:02.644Z,97058.82
2023-01-13T10:42:33.823Z,97053.06
2023-01-13T10:45:05.255Z,97050.61
2023-01-13T10:47:38.005Z,97048.23
2023-01-13T10:50:28.224Z,97045.45
2023-01-13T10:53:01.800Z,97042.55
2023-01-13T10:55:34.443Z,97034.89
2023-01-13T10:58:18.793Z,97030.19
2023-01-13T11:00:50.479Z,97023.64
2023-01-13T11:03:23.741Z,97017.14
2023-01-13T11:05:57.946Z,97018.60
2023-01-13T11:08:31.555Z,97022.19
2023-01-13T11:11:02.654Z,97026.70
2023-01-13T11:13:59.151Z,97026.73
2023-01-13T11:16:31.644Z,97025.68
2023-01-13T11:19:13.015Z,97021.54
2023-01-13T11:21:50.760Z,97015.06
2023-01-13T11:24:30.992Z,97017.71
2023-01-13T11:27:05.525Z,97018.27
2023-01-13T11:29:44.390Z,97015.79
2023-01-13T11:32:19.356Z,97008.95
2023-01-13T11:34:53.591Z,97003.67
2023-01-13T11:37:27.957Z,97001.45
2023-01-13T11:40:05.854Z,96992.33
2023-01-13T11:42:43.126Z,96991.13
2023-01-13T11:45:21.591Z,96990.20
2023-01-13T11:47:57.679Z,96985.77
2023-01-13T11:50:35.528Z,96984.77
2023-01-13T11:53:21.061Z,96980.98
2023-01-13T11:56:06.536Z,96979.95
2023-01-13T11:58:56.614Z,96978.13
2023-01-13T12:01:39.244Z,96975.18
2023-01-13T12:04:27.340Z,96976.17
2023-01-13T12:07:13.052Z,96971.65
2023-01-13T12:09:57.125Z,96971.84
2023-01-13T12:12:41.281Z,96969.29
2023-01-13T12:15:53.251Z,96961.66
2023-01-13T12:18:42.079Z,96965.59
2023-01-13T12:21:21.952Z,96963.75
2023-01-13T12:24:05.393Z,96966.45
2023-01-13T12:26:36.927Z,96966.63
2023-01-13T12:29:13.848Z,96967.36
2023-01-13T12:31:47.744Z,96969.86
2023-01-13T12:34:43.115Z,96969.73
2023-01-13T12:37:21.102Z,96970.31
2023-01-13T12:40:04.186Z,96969.10
2023-01-13T12:42:57.218Z,96963.11
2023-01-13T12:45:33.083Z,96963.05
2023-01-13T12:48:06.022Z,96967.81
2023-01-13T12:50:42.540Z,96965.04
2023-01-13T12:53:39.868Z,96959.79
2023-01-13T12:56:45.108Z,96954.88
2023-01-13T12:59:39.701Z,96953.19
2023-01-13T13:02:31.933Z,96956.23
2023-01-13T13:05:46.051Z,96954.12
2023-01-13T13:08:25.586Z,96950.69
2023-01-13T13:11:37.099Z,96949.98
2023-01-13T13:14:12.063Z,96953.52
2023-01-13T13:16:52.032Z,96957.20
2023-01-13T13:19:45.199Z,96957.80
2023-01-13T13:22:43.757Z,96957.11
2023-01-13T13:25:26.375Z,96955.11
2023-01-13T13:28:23.331Z,96954.81
2023-01-13T13:31:15.379Z,96953.45
2023-01-13T13:34:09.568Z,96955.27
2023-01-13T13:37:05.360Z,96955.33
2023-01-13T13:39:54.199Z,96957.30
2023-01-13T13:42:50.974Z,96958.20
2023-01-13T13:45:41.874Z,96962.55
2023-01-13T13:48:27.524Z,96967.61
2023-01-13T13:51:02.452Z,96968.55
2023-01-13T13:53:36.840Z,96974.85
2023-01-13T13:56:18.044Z,96982.65
2023-01-13T13:58:50.573Z,96993.91
2023-01-13T14:01:27.949Z,96998.48
2023-01-13T14:04:14.184Z,96995.78
2023-01-13T14:06:55.097Z,97000.24
2023-01-13T14:09:28.732Z,97010.10
2023-01-13T14:12:06.625Z,97014.70
2023-01-13T14:14:37.752Z,97025.36
2023-01-13T14:17:18.516Z,97029.21
2023-01-13T14:19:55.180Z,97035.83
2023-01-13T14:22:26.366Z,97042.17
2023-01-13T14:24:58.135Z,97051.48
2023-01-13T14:27:31.339Z,97058.59
2023-01-13T14:30:03.525Z,97063.14
2023-01-13T14:32:37.293Z,97065.69
2023-01-13T14:35:10.819Z,97058.40
2023-01-13T14:37:43.353Z,97034.85
2023-01-13T14:40:47.205Z,97015.89
2023-01-13T14:43:21.175Z,97016.73
2023-01-13T14:46:00.367Z,97002.77
2023-01-13T14:48:36.027Z,96999.71
2023-01-13T14:51:10.954Z,97004.92
2023-01-13T14:53:46.299Z,97008.44
2023-01-13T14:56:47.276Z,97009.91
2023-01-13T14:59:51.645Z,97052.36
2023-01-13T15:02:46.411Z,97063.66
2023-01-13T15:05:49.441Z,97066.15
2023-01-13T15:08:34.616Z,97051.09
2023-01-13T15:11:07.280Z,97031.98
2023-01-13T15:13:48.825Z,97030.91
2023-01-13T15:16:27.127Z,97048.95
2023-01-13T15:18:59.080Z,97059.02
2023-01-13T15:21:30.337Z,97067.45
2023-01-13T15:24:01.951Z,97072.91
2023-01-13T15:26:35.025Z,97072.65
2023-01-13T15:29:12.825Z,97070.29
2023-01-13T15:31:44.187Z,97070.98
2023-01-13T15:34:15.391Z,97074.34
2023-01-13T15:36:44.753Z,97079.55
2023-01-13T15:39:15.796Z,97084.14
2023-01-13T15:42:04.719Z,97087.32
2023-01-13T15:44:53.234Z,97089.77
2023-01-13T15:47:26.423Z,97091.09
2023-01-13T15:49:58.113Z,97091.86
2023-01-13T15:52:29.887Z,97090.95
2023-01-13T15:55:00.864Z,97097.36
2023-01-13T15:57:31.593Z,97100.15
2023-01-13T16:00:06.957Z,97103.81
2023-01-13T16:02:38.005Z,97108.88
2023-01-13T16:05:10.058Z,97116.06
2023-01-13T16:07:41.473Z,97127.15
2023-01-13T16:10:21.308Z,97126.50
2023-01-13T16:12:52.533Z,97111.34
2023-01-13T16:15:24.896Z,97097.22
2023-01-13T16:17:59.813Z,97111.34
2023-01-13T16:20:31.397Z,97120.38
2023-01-13T16:23:02.466Z,97133.17
2023-01-13T16:25:33.683Z,97138.89
2023-01-13T16:28:05.343Z,97147.26
2023-01-13T16:30:37.767Z,97151.00
2023-01-13T16:33:08.768Z,97155.70
2023-01-13T16:36:08.904Z,97167.53
2023-01-13T16:38:29.326Z,97165.81
2023-01-13T16:41:01.169Z,97170.58
2023-01-13T16:43:32.286Z,97168.08
2023-01-13T16:46:03.407Z,97174.63
2023-01-13T16:48:34.680Z,97175.89
2023-01-13T16:51:05.101Z,97175.39
2023-01-13T16:53:36.221Z,97178.73
2023-01-13T16:56:19.567Z,97180.61
2023-01-13T16:58:51.856Z,97188.15
2023-01-13T17:01:25.811Z,97190.00
2023-01-13T17:03:57.927Z,97193.05
2023-01-13T17:06:33.665Z,97194.19
2023-01-13T17:09:06.153Z,97196.33
2023-01-13T17:11:37.186Z,97201.69
2023-01-13T17:14:18.021Z,97202.11
2023-01-13T17:16:50.637Z,97207.16
2023-01-13T17:19:22.600Z,97209.94
2023-01-13T17:21:53.584Z,97215.40
2023-01-13T17:24:25.846Z,97220.71
2023-01-13T17:26:57.684Z,97224.04
2023-01-13T17:29:28.697Z,97230.24
2023-01-13T17:31:58.224Z,97235.02
2023-01-13T17:34:30.719Z,97231.35
2023-01-13T17:37:01.813Z,97228.44
2023-01-13T17:39:32.736Z,97230.38
2023-01-13T17:42:03.713Z,97235.15
2023-01-13T17:44:34.593Z,97233.27
2023-01-13T17:47:05.994Z,97234.36
2023-01-13T17:49:35.756Z,97237.17
2023-01-13T17:52:07.170Z,97242.91
2023-01-13T17:54:39.862Z,97249.43
2023-01-13T17:57:10.854Z,97251.96
2023-01-13T17:59:42.485Z,97258.42
2023-01-13T18:02:15.450Z,97262.83
2023-01-13T18:04:46.608Z,97266.84
2023-01-13T18:07:17.441Z,97270.87
2023-01-13T18:09:48.643Z,97276.81
2023-01-13T18:12:17.957Z,97274.34
2023-01-13T18:14:49.122Z,97276.92
2023-01-13T18:17:20.117Z,97286.33
2023-01-13T18:20:08.728Z,97284.09
2023-01-13T18:22:57.358Z,97294.31
2023-01-13T18:25:46.046Z,97289.04
2023-01-13T18:28:18.712Z,97293.13
2023-01-13T18:30:50.854Z,97298.54
2023-01-13T18:33:22.092Z,97294.66
2023-01-13T18:35:53.380Z,97295.22
2023-01-13T18:38:22.621Z,97301.81
2023-01-13T18:40:53.704Z,97302.30
2023-01-13T18:43:24.763Z,97310.75
2023-01-13T18:45:55.821Z,97313.98
2023-01-13T18:48:26.704Z,97313.72
2023-01-13T18:50:57.859Z,97311.91
2023-01-13T18:53:29.677Z,97315.45
2023-01-13T18:56:00.959Z,97323.27
2023-01-13T18:58:33.272Z,97332.98
2023-01-13T19:01:05.597Z,97333.54
2023-01-13T19:03:36.675Z,97333.05
2023-01-13T19:06:12.621Z,97340.39
2023-01-13T19:08:44.418Z,97336.83
2023-01-13T19:11:15.718Z,97345.30
2023-01-13T19:13:46.612Z,97343.92
2023-01-13T19:16:18.100Z,97343.66
2023-01-13T19:18:50.324Z,97351.60
2023-01-13T19:21:21.487Z,97352.39
2023-01-13T19:23:55.620Z,97347.80
2023-01-13T19:26:26.651Z,97355.73
2023-01-13T19:28:57.546Z,97362.83
2023-01-13T19:31:28.644Z,97366.14
2023-01-13T19:33:58.329Z,97369.69
2023-01-13T19:36:29.501Z,97368.94
2023-01-13T19:39:00.520Z,97369.46
2023-01-13T19:41:48.822Z,97380.62
2023-01-13T19:44:37.238Z,97388.55
2023-01-13T19:47:08.212Z,97387.35
2023-01-13T19:49:39.248Z,97386.82
2023-01-13T19:52:10.550Z,97396.94
2023-01-13T19:54:41.775Z,97398.21
2023-01-13T19:57:13.041Z,97406.56
2023-01-13T19:59:44.632Z,97408.61
2023-01-13T20:02:15.783Z,97412.35
2023-01-13T20:04:48.989Z,97410.42
2023-01-13T20:07:20.219Z,97413.52
2023-01-13T20:09:51.771Z,97412.61
2023-01-13T20:12:21.630Z,97411.80
2023-01-13T20:14:52.940Z,97413.77
2023-01-13T20:17:25.600Z,97413.52
2023-01-13T20:19:56.523Z,97420.44
2023-01-13T20:22:27.628Z,97417.79
2023-01-13T20:24:58.658Z,97416.98
2023-01-13T20:27:29.767Z,97416.12
2023-01-13T20:30:00.756Z,97421.91
2023-01-13T20:32:31.795Z,97423.80
2023-01-13T20:35:02.723Z,97429.02
2023-01-13T20:37:33.959Z,97431.67
2023-01-13T20:40:05.048Z,97431.41
2023-01-13T20:42:44.803Z,97429.64
2023-01-13T20:45:20.897Z,97427.65
2023-01-13T20:47:52.354Z,97428.54
2023-01-13T20:50:23.460Z,97426.78
2023-01-13T20:52:53.669Z,97432.61
2023-01-13T20:55:24.961Z,97424.29
2023-01-13T20:57:56.302Z,97424.41
2023-01-13T21:00:28.655Z,97428.21
2023-01-13T21:02:59.942Z,97422.48
2023-01-13T21:05:31.059Z,97426.48
2023-01-13T21:08:01.937Z,97419.45
2023-01-13T21:10:32.969Z,97419.11
2023-01-13T21:13:21.504Z,97423.02
2023-01-13T21:15:55.344Z,97422.48
2023-01-13T21:18:43.603Z,97424.80
2023-01-13T21:21:14.796Z,97430.08
2023-01-13T21:23:47.604Z,97427.51
2023-01-13T21:26:19.753Z,97426.67
2023-01-13T21:28:51.805Z,97426.14
2023-01-13T21:31:22.990Z,97418.68
2023-01-13T21:33:56.918Z,97422.60
2023-01-13T21:36:28.984Z,97428.18
2023-01-13T21:39:01.307Z,97434.78
2023-01-13T21:41:50.029Z,97431.19
2023-01-13T21:44:39.598Z,97434.45
2023-01-13T21:47:34.522Z,97434.94
2023-01-13T21:50:08.441Z,97438.06
2023-01-13T21:52:39.681Z,97441.77
2023-01-13T21:55:20.419Z,97442.36
2023-01-13T21:57:53.240Z,97447.59
2023-01-13T22:00:27.018Z,97456.04
2023-01-13T22:03:00.128Z,97463.16
2023-01-13T22:05:31.934Z,97469.06
2023-01-13T22:08:02.980Z,97472.12
2023-01-13T22:10:34.334Z,97478.90
2023-01-13T22:13:19.707Z,97482.05
2023-01-13T22:15:50.817Z,97483.36
2023-01-13T22:18:22.104Z,97488.95
2023-01-13T22:20:53.153Z,97490.85
2023-01-13T22:23:24.119Z,97493.29
2023-01-13T22:26:03.142Z,97496.12
2023-01-13T22:28:40.716Z,97500.20
2023-01-13T22:31:13.458Z,97504.47
2023-01-13T22:33:47.059Z,97503.44
2023-01-13T22:36:19.366Z,97507.77
2023-01-13T22:38:53.773Z,97515.77
2023-01-13T22:41:25.127Z,97518.45
2023-01-13T22:43:56.028Z,97517.52
2023-01-13T22:46:27.054Z,97513.95
2023-01-13T22:48:58.055Z,97513.73
2023-01-13T22:51:30.515Z,97514.14
2023-01-13T22:54:01.792Z,97517.76
2023-01-13T22:56:31.278Z,97522.45
2023-01-13T22:59:03.831Z,97518.74
2023-01-13T23:01:36.259Z,97522.88
2023-01-13T23:04:07.761Z,97529.47
2023-01-13T23:06:39.104Z,97530.76
2023-01-13T23:09:10.108Z,97529.73
2023-01-13T23:11:41.811Z,97535.73
2023-01-13T23:14:14.167Z,97537.92
2023-01-13T23:16:47.101Z,97534.92
2023-01-13T23:19:18.084Z,97538.30
2023-01-13T23:21:49.074Z,97539.73
2023-01-13T23:24:18.648Z,97538.83
2023-01-13T23:26:49.963Z,97535.47
2023-01-13T23:29:19.440Z,97533.23
2023-01-13T23:31:50.739Z,97530.56
2023-01-13T23:34:21.961Z,97527.41
2023-01-13T23:36:52.948Z,97531.34
2023-01-13T23:39:24.672Z,97525.89
2023-01-13T23:41:55.779Z,97523.19
2023-01-13T23:44:26.929Z,97522.98
2023-01-13T23:46:56.346Z,97520.48
2023-01-13T23:49:27.483Z,97519.19
2023-01-13T23:51:58.736Z,97516.80
2023-01-13T23:54:29.752Z,97517.02
2023-01-13T23:57:01.056Z,97515.92
2023-01-13T23:59:32.224Z,97521.23
